sensor_id;sensor_type;location;lat;lon;timestamp;temperature;humidity
27647;DHT22;42229;51.230;6.240;2022-08-11T00:01:24;22.30;44.10
27647;DHT22;42229;51.230;6.240;2022-08-11T00:04:01;22.20;43.20
27647;DHT22;42229;51.230;6.240;2022-08-11T00:06:33;22.10;43.60
27647;DHT22;42229;51.230;6.240;2022-08-11T00:09:02;22.10;44.40
27647;DHT22;42229;51.230;6.240;2022-08-11T00:11:35;22.10;44.40
27647;DHT22;42229;51.230;6.240;2022-08-11T00:14:03;22.10;44.10
27647;DHT22;42229;51.230;6.240;2022-08-11T00:16:37;22.00;44.30
27647;DHT22;42229;51.230;6.240;2022-08-11T00:19:03;21.90;42.90
27647;DHT22;42229;51.230;6.240;2022-08-11T00:21:30;21.90;42.80
27647;DHT22;42229;51.230;6.240;2022-08-11T00:23:59;21.90;43.10
27647;DHT22;42229;51.230;6.240;2022-08-11T00:26:26;21.80;42.90
27647;DHT22;42229;51.230;6.240;2022-08-11T00:28:53;21.80;43.60
27647;DHT22;42229;51.230;6.240;2022-08-11T00:33:52;21.70;43.50
27647;DHT22;42229;51.230;6.240;2022-08-11T00:36:19;21.70;43.10
27647;DHT22;42229;51.230;6.240;2022-08-11T00:38:51;21.60;42.70
27647;DHT22;42229;51.230;6.240;2022-08-11T00:41:27;21.60;43.40
27647;DHT22;42229;51.230;6.240;2022-08-11T00:49:31;21.50;44.30
27647;DHT22;42229;51.230;6.240;2022-08-11T01:00:16;21.30;42.60
27647;DHT22;42229;51.230;6.240;2022-08-11T01:16:57;21.10;44.50
27647;DHT22;42229;51.230;6.240;2022-08-11T01:19:50;21.00;43.80
27647;DHT22;42229;51.230;6.240;2022-08-11T01:36:56;20.90;44.40
27647;DHT22;42229;51.230;6.240;2022-08-11T01:51:16;20.70;44.20
27647;DHT22;42229;51.230;6.240;2022-08-11T01:53:53;20.60;44.00
27647;DHT22;42229;51.230;6.240;2022-08-11T01:56:44;20.60;44.20
27647;DHT22;42229;51.230;6.240;2022-08-11T01:59:55;20.50;44.10
27647;DHT22;42229;51.230;6.240;2022-08-11T02:10:37;20.30;44.20
27647;DHT22;42229;51.230;6.240;2022-08-11T02:16:27;20.20;44.30
27647;DHT22;42229;51.230;6.240;2022-08-11T02:19:19;20.10;44.40
27647;DHT22;42229;51.230;6.240;2022-08-11T02:22:12;20.00;44.40
27647;DHT22;42229;51.230;6.240;2022-08-11T02:25:37;20.00;44.60
27647;DHT22;42229;51.230;6.240;2022-08-11T06:50:33;21.00;59.80
27647;DHT22;42229;51.230;6.240;2022-08-11T06:53:18;21.20;58.10
27647;DHT22;42229;51.230;6.240;2022-08-11T06:55:45;21.40;56.00
27647;DHT22;42229;51.230;6.240;2022-08-11T06:58:33;21.60;57.50
27647;DHT22;42229;51.230;6.240;2022-08-11T07:01:28;21.70;57.80
27647;DHT22;42229;51.230;6.240;2022-08-11T07:04:04;21.90;54.40
27647;DHT22;42229;51.230;6.240;2022-08-11T07:06:36;22.10;57.70
27647;DHT22;42229;51.230;6.240;2022-08-11T07:09:23;22.20;55.30
27647;DHT22;42229;51.230;6.240;2022-08-11T07:15:17;22.60;55.90
27647;DHT22;42229;51.230;6.240;2022-08-11T07:18:02;22.80;55.30
27647;DHT22;42229;51.230;6.240;2022-08-11T07:20:48;23.00;54.90
27647;DHT22;42229;51.230;6.240;2022-08-11T07:23:34;23.10;54.70
27647;DHT22;42229;51.230;6.240;2022-08-11T07:26:21;23.30;54.90
27647;DHT22;42229;51.230;6.240;2022-08-11T07:29:09;23.40;55.50
27647;DHT22;42229;51.230;6.240;2022-08-11T07:31:40;23.60;53.80
27647;DHT22;42229;51.230;6.240;2022-08-11T07:34:19;23.80;54.70
27647;DHT22;42229;51.230;6.240;2022-08-11T07:37:02;23.90;54.00
27647;DHT22;42229;51.230;6.240;2022-08-11T07:39:33;24.10;54.20
27647;DHT22;42229;51.230;6.240;2022-08-11T07:42:08;24.20;53.90
27647;DHT22;42229;51.230;6.240;2022-08-11T07:44:35;24.40;53.60
27647;DHT22;42229;51.230;6.240;2022-08-11T07:47:22;24.60;53.70
27647;DHT22;42229;51.230;6.240;2022-08-11T07:50:07;24.80;53.40
27647;DHT22;42229;51.230;6.240;2022-08-11T07:52:52;24.90;53.50
27647;DHT22;42229;51.230;6.240;2022-08-11T07:55:20;25.10;53.60
27647;DHT22;42229;51.230;6.240;2022-08-11T07:57:49;25.20;52.40
27647;DHT22;42229;51.230;6.240;2022-08-11T08:00:39;25.40;52.80
27647;DHT22;42229;51.230;6.240;2022-08-11T08:03:30;25.50;52.70
27647;DHT22;42229;51.230;6.240;2022-08-11T08:06:16;25.70;53.00
27647;DHT22;42229;51.230;6.240;2022-08-11T08:09:02;25.90;52.60
27647;DHT22;42229;51.230;6.240;2022-08-11T08:11:48;26.00;52.80
27647;DHT22;42229;51.230;6.240;2022-08-11T08:14:33;26.20;52.60
27647;DHT22;42229;51.230;6.240;2022-08-11T08:17:19;26.40;52.50
27647;DHT22;42229;51.230;6.240;2022-08-11T08:20:05;26.50;51.80
27647;DHT22;42229;51.230;6.240;2022-08-11T08:22:35;26.70;52.40
27647;DHT22;42229;51.230;6.240;2022-08-11T08:25:02;26.90;52.40
27647;DHT22;42229;51.230;6.240;2022-08-11T08:27:29;27.00;52.10
27647;DHT22;42229;51.230;6.240;2022-08-11T08:29:56;27.20;52.50
27647;DHT22;42229;51.230;6.240;2022-08-11T08:32:41;27.30;52.20
27647;DHT22;42229;51.230;6.240;2022-08-11T08:35:11;27.40;51.70
27647;DHT22;42229;51.230;6.240;2022-08-11T08:37:37;27.60;52.10
27647;DHT22;42229;51.230;6.240;2022-08-11T08:40:07;27.70;51.90
27647;DHT22;42229;51.230;6.240;2022-08-11T08:42:36;27.90;50.40
27647;DHT22;42229;51.230;6.240;2022-08-11T08:45:05;28.00;51.00
27647;DHT22;42229;51.230;6.240;2022-08-11T08:47:41;28.10;50.60
27647;DHT22;42229;51.230;6.240;2022-08-11T08:50:19;28.20;51.40
27647;DHT22;42229;51.230;6.240;2022-08-11T08:53:08;28.40;50.80
27647;DHT22;42229;51.230;6.240;2022-08-11T08:55:33;28.50;51.20
27647;DHT22;42229;51.230;6.240;2022-08-11T08:58:00;28.60;50.50
27647;DHT22;42229;51.230;6.240;2022-08-11T09:00:36;28.70;51.00
27647;DHT22;42229;51.230;6.240;2022-08-11T09:03:05;28.90;50.20
27647;DHT22;42229;51.230;6.240;2022-08-11T09:05:31;29.00;50.50
27647;DHT22;42229;51.230;6.240;2022-08-11T09:07:58;29.10;50.90
27647;DHT22;42229;51.230;6.240;2022-08-11T09:10:24;29.30;50.20
27647;DHT22;42229;51.230;6.240;2022-08-11T09:12:51;29.40;50.70
27647;DHT22;42229;51.230;6.240;2022-08-11T09:15:18;29.50;50.80
27647;DHT22;42229;51.230;6.240;2022-08-11T09:17:45;29.60;48.70
27647;DHT22;42229;51.230;6.240;2022-08-11T09:20:22;29.70;49.00
27647;DHT22;42229;51.230;6.240;2022-08-11T09:22:55;29.80;50.00
27647;DHT22;42229;51.230;6.240;2022-08-11T09:25:41;29.90;49.50
27647;DHT22;42229;51.230;6.240;2022-08-11T09:28:26;30.10;48.50
27647;DHT22;42229;51.230;6.240;2022-08-11T09:30:54;30.20;48.80
27647;DHT22;42229;51.230;6.240;2022-08-11T09:33:21;30.30;48.30
27647;DHT22;42229;51.230;6.240;2022-08-11T09:35:48;30.40;49.40
27647;DHT22;42229;51.230;6.240;2022-08-11T09:38:16;30.50;49.60
27647;DHT22;42229;51.230;6.240;2022-08-11T09:41:03;30.70;47.90
27647;DHT22;42229;51.230;6.240;2022-08-11T09:43:34;30.70;48.40
27647;DHT22;42229;51.230;6.240;2022-08-11T09:46:23;30.80;48.30
27647;DHT22;42229;51.230;6.240;2022-08-11T09:48:52;31.00;48.30
27647;DHT22;42229;51.230;6.240;2022-08-11T09:51:21;31.10;48.30
27647;DHT22;42229;51.230;6.240;2022-08-11T09:53:48;31.10;48.20
27647;DHT22;42229;51.230;6.240;2022-08-11T09:56:15;31.30;48.00
27647;DHT22;42229;51.230;6.240;2022-08-11T09:59:02;31.30;49.00
27647;DHT22;42229;51.230;6.240;2022-08-11T10:01:34;31.50;47.50
27647;DHT22;42229;51.230;6.240;2022-08-11T10:04:13;31.60;45.20
27647;DHT22;42229;51.230;6.240;2022-08-11T10:06:41;31.60;47.60
27647;DHT22;42229;51.230;6.240;2022-08-11T10:12:22;31.80;45.60
27647;DHT22;42229;51.230;6.240;2022-08-11T10:14:52;31.90;45.90
27647;DHT22;42229;51.230;6.240;2022-08-11T10:17:43;31.90;46.20
27647;DHT22;42229;51.230;6.240;2022-08-11T10:20:31;32.10;46.90
27647;DHT22;42229;51.230;6.240;2022-08-11T10:22:59;32.10;46.90
27647;DHT22;42229;51.230;6.240;2022-08-11T10:25:44;32.20;46.40
27647;DHT22;42229;51.230;6.240;2022-08-11T10:28:30;32.30;44.80
27647;DHT22;42229;51.230;6.240;2022-08-11T10:30:57;32.40;47.00
27647;DHT22;42229;51.230;6.240;2022-08-11T10:33:45;32.50;46.30
27647;DHT22;42229;51.230;6.240;2022-08-11T10:38:59;32.70;43.20
27647;DHT22;42229;51.230;6.240;2022-08-11T10:41:26;32.80;44.90
27647;DHT22;42229;51.230;6.240;2022-08-11T10:44:11;32.80;41.00
27647;DHT22;42229;51.230;6.240;2022-08-11T10:46:38;33.00;45.00
27647;DHT22;42229;51.230;6.240;2022-08-11T10:49:24;33.00;43.10
27647;DHT22;42229;51.230;6.240;2022-08-11T10:51:50;33.10;42.60
27647;DHT22;42229;51.230;6.240;2022-08-11T10:54:36;33.10;44.30
27647;DHT22;42229;51.230;6.240;2022-08-11T10:57:23;33.30;42.80
27647;DHT22;42229;51.230;6.240;2022-08-11T11:00:09;33.30;40.50
27647;DHT22;42229;51.230;6.240;2022-08-11T11:02:43;33.40;42.90
27647;DHT22;42229;51.230;6.240;2022-08-11T11:10:56;33.60;40.20
27647;DHT22;42229;51.230;6.240;2022-08-11T11:13:23;33.70;39.70
27647;DHT22;42229;51.230;6.240;2022-08-11T11:16:09;33.80;39.70
27647;DHT22;42229;51.230;6.240;2022-08-11T11:18:54;33.80;42.80
27647;DHT22;42229;51.230;6.240;2022-08-11T11:21:22;33.90;42.70
27647;DHT22;42229;51.230;6.240;2022-08-11T11:26:51;34.00;38.50
27647;DHT22;42229;51.230;6.240;2022-08-11T11:29:33;34.10;39.60
27647;DHT22;42229;51.230;6.240;2022-08-11T11:32:21;34.10;38.20
27647;DHT22;42229;51.230;6.240;2022-08-11T11:37:24;34.30;41.10
27647;DHT22;42229;51.230;6.240;2022-08-11T11:39:51;34.40;41.50
27647;DHT22;42229;51.230;6.240;2022-08-11T11:42:18;34.50;39.50
27647;DHT22;42229;51.230;6.240;2022-08-11T11:44:44;34.70;37.10
27647;DHT22;42229;51.230;6.240;2022-08-11T11:47:11;34.80;40.10
27647;DHT22;42229;51.230;6.240;2022-08-11T11:49:40;35.10;38.30
27647;DHT22;42229;51.230;6.240;2022-08-11T11:52:12;35.30;40.30
27647;DHT22;42229;51.230;6.240;2022-08-11T11:54:42;35.60;39.60
27647;DHT22;42229;51.230;6.240;2022-08-11T11:57:08;35.90;39.90
27647;DHT22;42229;51.230;6.240;2022-08-11T11:59:54;36.10;38.30
27647;DHT22;42229;51.230;6.240;2022-08-11T12:02:40;36.40;37.80
27647;DHT22;42229;51.230;6.240;2022-08-11T12:05:08;36.70;36.00
27647;DHT22;42229;51.230;6.240;2022-08-11T12:07:35;36.90;38.10
27647;DHT22;42229;51.230;6.240;2022-08-11T12:10:21;37.10;37.50
27647;DHT22;42229;51.230;6.240;2022-08-11T12:12:48;37.40;37.40
27647;DHT22;42229;51.230;6.240;2022-08-11T12:15:33;37.60;36.50
27647;DHT22;42229;51.230;6.240;2022-08-11T12:18:00;37.90;37.30
27647;DHT22;42229;51.230;6.240;2022-08-11T12:20:27;38.20;37.90
27647;DHT22;42229;51.230;6.240;2022-08-11T12:22:56;38.40;36.30
27647;DHT22;42229;51.230;6.240;2022-08-11T12:25:41;38.60;35.20
27647;DHT22;42229;51.230;6.240;2022-08-11T12:28:27;38.90;35.80
27647;DHT22;42229;51.230;6.240;2022-08-11T12:30:53;39.20;36.30
27647;DHT22;42229;51.230;6.240;2022-08-11T12:33:20;39.40;33.90
27647;DHT22;42229;51.230;6.240;2022-08-11T12:35:47;39.50;33.00
27647;DHT22;42229;51.230;6.240;2022-08-11T12:38:17;39.60;32.70
27647;DHT22;42229;51.230;6.240;2022-08-11T12:40:45;39.60;35.50
27647;DHT22;42229;51.230;6.240;2022-08-11T12:43:31;39.70;34.90
27647;DHT22;42229;51.230;6.240;2022-08-11T12:46:23;39.80;34.70
27647;DHT22;42229;51.230;6.240;2022-08-11T12:48:56;40.00;34.90
27647;DHT22;42229;51.230;6.240;2022-08-11T12:51:44;40.10;32.20
27647;DHT22;42229;51.230;6.240;2022-08-11T12:54:34;40.40;34.20
27647;DHT22;42229;51.230;6.240;2022-08-11T12:57:24;40.50;34.20
27647;DHT22;42229;51.230;6.240;2022-08-11T13:00:11;40.70;34.30
27647;DHT22;42229;51.230;6.240;2022-08-11T13:02:57;41.00;35.30
27647;DHT22;42229;51.230;6.240;2022-08-11T13:05:42;41.20;35.00
27647;DHT22;42229;51.230;6.240;2022-08-11T13:08:08;41.40;34.30
27647;DHT22;42229;51.230;6.240;2022-08-11T13:10:34;41.60;34.40
27647;DHT22;42229;51.230;6.240;2022-08-11T13:13:20;41.80;33.40
27647;DHT22;42229;51.230;6.240;2022-08-11T13:15:54;42.00;32.10
27647;DHT22;42229;51.230;6.240;2022-08-11T13:18:21;42.20;35.80
27647;DHT22;42229;51.230;6.240;2022-08-11T13:20:50;42.30;35.60
27647;DHT22;42229;51.230;6.240;2022-08-11T13:23:17;42.30;33.60
27647;DHT22;42229;51.230;6.240;2022-08-11T13:25:44;42.40;32.80
27647;DHT22;42229;51.230;6.240;2022-08-11T13:28:11;42.40;34.90
27647;DHT22;42229;51.230;6.240;2022-08-11T13:30:37;42.50;32.70
27647;DHT22;42229;51.230;6.240;2022-08-11T13:33:22;42.60;31.00
27647;DHT22;42229;51.230;6.240;2022-08-11T13:35:50;42.50;31.70
27647;DHT22;42229;51.230;6.240;2022-08-11T13:38:18;42.50;32.00
27647;DHT22;42229;51.230;6.240;2022-08-11T13:40:47;42.50;32.20
27647;DHT22;42229;51.230;6.240;2022-08-11T13:43:14;42.50;32.70
27647;DHT22;42229;51.230;6.240;2022-08-11T13:45:41;42.50;31.90
27647;DHT22;42229;51.230;6.240;2022-08-11T13:48:09;42.50;31.30
27647;DHT22;42229;51.230;6.240;2022-08-11T13:50:37;42.50;31.90
27647;DHT22;42229;51.230;6.240;2022-08-11T13:53:23;42.50;31.30
27647;DHT22;42229;51.230;6.240;2022-08-11T13:55:50;42.50;32.20
27647;DHT22;42229;51.230;6.240;2022-08-11T13:58:17;42.50;30.10
27647;DHT22;42229;51.230;6.240;2022-08-11T14:00:44;42.50;31.90
27647;DHT22;42229;51.230;6.240;2022-08-11T14:03:13;42.50;31.90
27647;DHT22;42229;51.230;6.240;2022-08-11T14:05:47;42.50;30.50
27647;DHT22;42229;51.230;6.240;2022-08-11T14:08:15;42.50;31.60
27647;DHT22;42229;51.230;6.240;2022-08-11T14:10:43;42.50;31.30
27647;DHT22;42229;51.230;6.240;2022-08-11T14:13:12;42.50;31.10
27647;DHT22;42229;51.230;6.240;2022-08-11T14:15:59;42.40;31.20
27647;DHT22;42229;51.230;6.240;2022-08-11T14:18:30;42.30;31.90
27647;DHT22;42229;51.230;6.240;2022-08-11T14:21:00;42.30;32.00
27647;DHT22;42229;51.230;6.240;2022-08-11T14:23:48;42.20;31.80
27647;DHT22;42229;51.230;6.240;2022-08-11T14:26:16;42.10;31.40
27647;DHT22;42229;51.230;6.240;2022-08-11T14:28:52;42.00;31.80
27647;DHT22;42229;51.230;6.240;2022-08-11T14:31:20;42.00;32.50
27647;DHT22;42229;51.230;6.240;2022-08-11T14:33:48;42.00;32.10
27647;DHT22;42229;51.230;6.240;2022-08-11T14:36:15;41.90;31.90
27647;DHT22;42229;51.230;6.240;2022-08-11T14:38:42;41.80;32.10
27647;DHT22;42229;51.230;6.240;2022-08-11T14:41:08;41.80;31.90
27647;DHT22;42229;51.230;6.240;2022-08-11T14:43:54;41.80;32.20
27647;DHT22;42229;51.230;6.240;2022-08-11T14:46:40;41.90;31.80
27647;DHT22;42229;51.230;6.240;2022-08-11T14:49:26;41.90;32.00
27647;DHT22;42229;51.230;6.240;2022-08-11T14:51:53;42.00;31.60
27647;DHT22;42229;51.230;6.240;2022-08-11T14:54:21;42.20;32.40
27647;DHT22;42229;51.230;6.240;2022-08-11T14:57:08;42.20;32.00
27647;DHT22;42229;51.230;6.240;2022-08-11T14:59:35;42.30;31.00
27647;DHT22;42229;51.230;6.240;2022-08-11T15:02:02;42.40;31.10
27647;DHT22;42229;51.230;6.240;2022-08-11T15:04:49;42.40;31.20
27647;DHT22;42229;51.230;6.240;2022-08-11T15:07:16;42.40;31.60
27647;DHT22;42229;51.230;6.240;2022-08-11T15:09:42;42.50;31.40
27647;DHT22;42229;51.230;6.240;2022-08-11T15:12:10;42.60;31.60
27647;DHT22;42229;51.230;6.240;2022-08-11T15:14:43;42.60;30.50
27647;DHT22;42229;51.230;6.240;2022-08-11T15:17:29;42.60;31.10
27647;DHT22;42229;51.230;6.240;2022-08-11T15:20:05;42.50;30.50
27647;DHT22;42229;51.230;6.240;2022-08-11T15:22:52;42.60;31.10
27647;DHT22;42229;51.230;6.240;2022-08-11T15:25:36;42.50;31.00
27647;DHT22;42229;51.230;6.240;2022-08-11T15:28:04;42.50;30.30
27647;DHT22;42229;51.230;6.240;2022-08-11T15:30:51;42.50;30.90
27647;DHT22;42229;51.230;6.240;2022-08-11T15:33:56;42.50;31.10
27647;DHT22;42229;51.230;6.240;2022-08-11T15:36:45;42.60;30.00
27647;DHT22;42229;51.230;6.240;2022-08-11T15:39:32;42.60;30.50
27647;DHT22;42229;51.230;6.240;2022-08-11T15:42:02;42.70;30.20
27647;DHT22;42229;51.230;6.240;2022-08-11T15:44:54;42.70;30.80
27647;DHT22;42229;51.230;6.240;2022-08-11T15:47:50;42.70;30.30
27647;DHT22;42229;51.230;6.240;2022-08-11T15:50:27;42.80;30.70
27647;DHT22;42229;51.230;6.240;2022-08-11T15:52:57;42.90;30.70
27647;DHT22;42229;51.230;6.240;2022-08-11T15:55:25;42.90;30.80
27647;DHT22;42229;51.230;6.240;2022-08-11T15:57:54;43.10;30.50
27647;DHT22;42229;51.230;6.240;2022-08-11T16:00:40;43.10;29.80
27647;DHT22;42229;51.230;6.240;2022-08-11T16:03:27;43.20;30.10
27647;DHT22;42229;51.230;6.240;2022-08-11T16:06:12;43.30;29.80
27647;DHT22;42229;51.230;6.240;2022-08-11T16:08:39;43.30;29.90
27647;DHT22;42229;51.230;6.240;2022-08-11T16:11:07;43.30;30.00
27647;DHT22;42229;51.230;6.240;2022-08-11T16:13:34;43.20;30.10
27647;DHT22;42229;51.230;6.240;2022-08-11T16:16:02;43.20;29.80
27647;DHT22;42229;51.230;6.240;2022-08-11T16:18:43;43.00;29.80
27647;DHT22;42229;51.230;6.240;2022-08-11T16:21:20;43.00;29.70
27647;DHT22;42229;51.230;6.240;2022-08-11T16:23:51;42.90;29.60
27647;DHT22;42229;51.230;6.240;2022-08-11T16:26:20;42.90;30.00
27647;DHT22;42229;51.230;6.240;2022-08-11T16:28:49;42.80;29.60
27647;DHT22;42229;51.230;6.240;2022-08-11T16:31:18;42.80;29.60
27647;DHT22;42229;51.230;6.240;2022-08-11T16:33:46;42.80;30.00
27647;DHT22;42229;51.230;6.240;2022-08-11T16:36:13;42.80;30.10
27647;DHT22;42229;51.230;6.240;2022-08-11T16:38:58;42.80;29.90
27647;DHT22;42229;51.230;6.240;2022-08-11T16:41:26;42.70;29.80
27647;DHT22;42229;51.230;6.240;2022-08-11T16:44:13;42.60;29.50
27647;DHT22;42229;51.230;6.240;2022-08-11T16:46:58;42.60;29.50
27647;DHT22;42229;51.230;6.240;2022-08-11T16:49:28;42.40;29.60
27647;DHT22;42229;51.230;6.240;2022-08-11T16:51:56;42.20;29.70
27647;DHT22;42229;51.230;6.240;2022-08-11T16:54:23;42.20;29.70
27647;DHT22;42229;51.230;6.240;2022-08-11T16:56:50;42.10;29.90
27647;DHT22;42229;51.230;6.240;2022-08-11T16:59:35;42.00;29.90
27647;DHT22;42229;51.230;6.240;2022-08-11T17:02:09;41.90;29.80
27647;DHT22;42229;51.230;6.240;2022-08-11T17:07:36;41.80;29.80
27647;DHT22;42229;51.230;6.240;2022-08-11T17:10:29;41.60;29.90
27647;DHT22;42229;51.230;6.240;2022-08-11T17:13:17;41.60;29.90
27647;DHT22;42229;51.230;6.240;2022-08-11T17:16:10;41.50;30.00
27647;DHT22;42229;51.230;6.240;2022-08-11T17:18:45;41.40;30.10
27647;DHT22;42229;51.230;6.240;2022-08-11T17:21:16;41.30;30.10
27647;DHT22;42229;51.230;6.240;2022-08-11T17:23:52;41.20;30.20
27647;DHT22;42229;51.230;6.240;2022-08-11T17:32:03;41.00;30.20
27647;DHT22;42229;51.230;6.240;2022-08-11T17:34:51;40.90;30.20
27647;DHT22;42229;51.230;6.240;2022-08-11T17:37:37;40.90;30.40
27647;DHT22;42229;51.230;6.240;2022-08-11T17:40:04;40.90;30.30
27647;DHT22;42229;51.230;6.240;2022-08-11T17:42:33;40.90;30.40
27647;DHT22;42229;51.230;6.240;2022-08-11T17:45:19;40.80;30.40
27647;DHT22;42229;51.230;6.240;2022-08-11T17:48:04;40.80;30.40
27647;DHT22;42229;51.230;6.240;2022-08-11T17:50:50;40.70;30.40
27647;DHT22;42229;51.230;6.240;2022-08-11T17:53:17;40.60;30.40
27647;DHT22;42229;51.230;6.240;2022-08-11T17:56:06;40.40;30.40
27647;DHT22;42229;51.230;6.240;2022-08-11T17:58:58;40.40;30.60
27647;DHT22;42229;51.230;6.240;2022-08-11T18:01:45;40.30;31.00
27647;DHT22;42229;51.230;6.240;2022-08-11T18:04:12;40.20;30.70
27647;DHT22;42229;51.230;6.240;2022-08-11T18:06:39;40.00;30.50
27647;DHT22;42229;51.230;6.240;2022-08-11T18:09:11;39.90;30.60
27647;DHT22;42229;51.230;6.240;2022-08-11T18:11:58;39.80;30.60
27647;DHT22;42229;51.230;6.240;2022-08-11T18:14:45;39.70;30.80
27647;DHT22;42229;51.230;6.240;2022-08-11T18:17:32;39.50;30.60
27647;DHT22;42229;51.230;6.240;2022-08-11T18:20:18;39.30;30.60
27647;DHT22;42229;51.230;6.240;2022-08-11T18:23:04;39.10;30.70
27647;DHT22;42229;51.230;6.240;2022-08-11T18:25:51;38.90;30.70
27647;DHT22;42229;51.230;6.240;2022-08-11T18:28:44;38.60;30.70
27647;DHT22;42229;51.230;6.240;2022-08-11T18:31:32;38.40;30.60
27647;DHT22;42229;51.230;6.240;2022-08-11T18:34:19;38.00;31.00
27647;DHT22;42229;51.230;6.240;2022-08-11T18:37:08;37.60;31.10
27647;DHT22;42229;51.230;6.240;2022-08-11T18:39:57;37.10;30.60
27647;DHT22;42229;51.230;6.240;2022-08-11T18:42:44;36.60;31.20
27647;DHT22;42229;51.230;6.240;2022-08-11T18:45:30;36.20;31.10
27647;DHT22;42229;51.230;6.240;2022-08-11T18:48:17;35.70;31.30
27647;DHT22;42229;51.230;6.240;2022-08-11T18:51:04;35.30;30.70
27647;DHT22;42229;51.230;6.240;2022-08-11T18:53:51;34.90;31.30
27647;DHT22;42229;51.230;6.240;2022-08-11T18:56:38;34.50;31.50
27647;DHT22;42229;51.230;6.240;2022-08-11T18:59:24;34.10;31.30
27647;DHT22;42229;51.230;6.240;2022-08-11T19:02:10;33.70;32.20
27647;DHT22;42229;51.230;6.240;2022-08-11T19:04:57;33.40;31.10
27647;DHT22;42229;51.230;6.240;2022-08-11T19:07:42;33.10;31.10
27647;DHT22;42229;51.230;6.240;2022-08-11T19:10:29;32.70;31.10
27647;DHT22;42229;51.230;6.240;2022-08-11T19:13:14;32.40;31.90
27647;DHT22;42229;51.230;6.240;2022-08-11T19:16:00;32.20;31.90
27647;DHT22;42229;51.230;6.240;2022-08-11T19:18:47;31.90;31.70
27647;DHT22;42229;51.230;6.240;2022-08-11T19:21:33;31.70;31.80
27647;DHT22;42229;51.230;6.240;2022-08-11T19:24:19;31.40;31.80
27647;DHT22;42229;51.230;6.240;2022-08-11T19:27:05;31.20;32.00
27647;DHT22;42229;51.230;6.240;2022-08-11T19:29:50;30.90;31.80
27647;DHT22;42229;51.230;6.240;2022-08-11T19:32:37;30.70;33.00
27647;DHT22;42229;51.230;6.240;2022-08-11T19:35:23;30.50;32.30
27647;DHT22;42229;51.230;6.240;2022-08-11T19:38:08;30.30;31.80
27647;DHT22;42229;51.230;6.240;2022-08-11T19:40:56;30.10;32.10
27647;DHT22;42229;51.230;6.240;2022-08-11T19:43:43;29.90;32.70
27647;DHT22;42229;51.230;6.240;2022-08-11T19:46:28;29.70;32.80
27647;DHT22;42229;51.230;6.240;2022-08-11T19:49:14;29.50;32.20
27647;DHT22;42229;51.230;6.240;2022-08-11T19:52:02;29.40;32.40
27647;DHT22;42229;51.230;6.240;2022-08-11T19:54:47;29.20;32.70
27647;DHT22;42229;51.230;6.240;2022-08-11T19:57:33;29.00;32.20
27647;DHT22;42229;51.230;6.240;2022-08-11T20:00:20;28.90;32.40
27647;DHT22;42229;51.230;6.240;2022-08-11T20:03:06;28.70;32.90
27647;DHT22;42229;51.230;6.240;2022-08-11T20:05:54;28.60;32.30
27647;DHT22;42229;51.230;6.240;2022-08-11T20:08:40;28.40;32.90
27647;DHT22;42229;51.230;6.240;2022-08-11T20:11:29;28.30;32.80
27647;DHT22;42229;51.230;6.240;2022-08-11T20:14:16;28.20;33.10
27647;DHT22;42229;51.230;6.240;2022-08-11T20:17:04;28.00;33.50
27647;DHT22;42229;51.230;6.240;2022-08-11T20:19:51;27.90;33.30
27647;DHT22;42229;51.230;6.240;2022-08-11T20:22:36;27.80;35.30
27647;DHT22;42229;51.230;6.240;2022-08-11T20:25:22;27.70;34.10
27647;DHT22;42229;51.230;6.240;2022-08-11T20:28:08;27.50;34.40
27647;DHT22;42229;51.230;6.240;2022-08-11T20:30:55;27.40;33.30
27647;DHT22;42229;51.230;6.240;2022-08-11T20:33:48;27.30;33.10
27647;DHT22;42229;51.230;6.240;2022-08-11T20:36:33;27.20;33.00
27647;DHT22;42229;51.230;6.240;2022-08-11T20:39:19;27.10;33.20
27647;DHT22;42229;51.230;6.240;2022-08-11T20:42:04;27.00;33.60
27647;DHT22;42229;51.230;6.240;2022-08-11T20:44:50;26.90;33.80
27647;DHT22;42229;51.230;6.240;2022-08-11T20:47:35;26.90;34.50
27647;DHT22;42229;51.230;6.240;2022-08-11T20:50:21;26.70;34.80
27647;DHT22;42229;51.230;6.240;2022-08-11T20:53:07;26.60;34.20
27647;DHT22;42229;51.230;6.240;2022-08-11T20:55:54;26.60;34.80
27647;DHT22;42229;51.230;6.240;2022-08-11T20:58:42;26.50;33.90
27647;DHT22;42229;51.230;6.240;2022-08-11T21:01:28;26.40;34.40
27647;DHT22;42229;51.230;6.240;2022-08-11T21:04:13;26.30;34.10
27647;DHT22;42229;51.230;6.240;2022-08-11T21:07:02;26.20;34.50
27647;DHT22;42229;51.230;6.240;2022-08-11T21:09:49;26.20;34.00
27647;DHT22;42229;51.230;6.240;2022-08-11T21:12:34;26.10;34.10
27647;DHT22;42229;51.230;6.240;2022-08-11T21:15:20;26.00;34.70
27647;DHT22;42229;51.230;6.240;2022-08-11T21:18:05;25.90;34.00
27647;DHT22;42229;51.230;6.240;2022-08-11T21:20:51;25.80;34.00
27647;DHT22;42229;51.230;6.240;2022-08-11T21:23:35;25.80;34.10
27647;DHT22;42229;51.230;6.240;2022-08-11T21:26:21;25.60;33.90
27647;DHT22;42229;51.230;6.240;2022-08-11T21:29:07;25.60;34.10
27647;DHT22;42229;51.230;6.240;2022-08-11T21:31:52;25.50;34.10
27647;DHT22;42229;51.230;6.240;2022-08-11T21:34:38;25.50;34.50
27647;DHT22;42229;51.230;6.240;2022-08-11T21:37:25;25.40;34.10
27647;DHT22;42229;51.230;6.240;2022-08-11T21:40:11;25.30;34.10
27647;DHT22;42229;51.230;6.240;2022-08-11T21:42:58;25.30;34.60
27647;DHT22;42229;51.230;6.240;2022-08-11T21:45:44;25.20;34.40
27647;DHT22;42229;51.230;6.240;2022-08-11T21:48:29;25.20;34.80
27647;DHT22;42229;51.230;6.240;2022-08-11T21:51:15;25.10;35.10
27647;DHT22;42229;51.230;6.240;2022-08-11T21:54:00;25.00;34.50
27647;DHT22;42229;51.230;6.240;2022-08-11T21:56:45;24.90;34.40
27647;DHT22;42229;51.230;6.240;2022-08-11T21:59:47;24.90;34.70
27647;DHT22;42229;51.230;6.240;2022-08-11T22:02:38;24.80;34.50
27647;DHT22;42229;51.230;6.240;2022-08-11T22:05:24;24.80;34.50
27647;DHT22;42229;51.230;6.240;2022-08-11T22:08:10;24.70;34.70
27647;DHT22;42229;51.230;6.240;2022-08-11T22:10:55;24.60;34.70
27647;DHT22;42229;51.230;6.240;2022-08-11T22:13:41;24.50;35.50
27647;DHT22;42229;51.230;6.240;2022-08-11T22:16:25;24.50;35.00
27647;DHT22;42229;51.230;6.240;2022-08-11T22:19:10;24.50;35.70
27647;DHT22;42229;51.230;6.240;2022-08-11T22:21:57;24.40;35.40
27647;DHT22;42229;51.230;6.240;2022-08-11T22:24:43;24.30;35.30
27647;DHT22;42229;51.230;6.240;2022-08-11T22:27:28;24.30;35.30
27647;DHT22;42229;51.230;6.240;2022-08-11T22:30:14;24.20;35.20
27647;DHT22;42229;51.230;6.240;2022-08-11T22:32:59;24.20;35.20
27647;DHT22;42229;51.230;6.240;2022-08-11T22:35:46;24.10;35.20
27647;DHT22;42229;51.230;6.240;2022-08-11T22:38:35;24.10;35.40
27647;DHT22;42229;51.230;6.240;2022-08-11T22:41:21;24.00;35.30